Metar z połowy godziny Komunikat METAR ze strony awiacja.imgw.pl Metar G00 EPZG METAR EPZG 271430Z 09007KT 4600 BR NSC 02/02 Q0994 =